sensor_id;sensor_type;location;lat;lon;timestamp;P1;durP1;ratioP1;P2;durP2;ratioP2
9948;SDS011;5013;51.840;8.276;2022-12-29T00:01:53;1.80;;;1.70;;
9948;SDS011;5013;51.840;8.276;2022-12-29T00:04:20;1.90;;;1.60;;
9948;SDS011;5013;51.840;8.276;2022-12-29T00:06:46;1.70;;;1.60;;
9948;SDS011;5013;51.840;8.276;2022-12-29T00:09:11;1.50;;;1.40;;
9948;SDS011;5013;51.840;8.276;2022-12-29T00:11:37;1.77;;;1.67;;
9948;SDS011;5013;51.840;8.276;2022-12-29T00:14:19;1.40;;;1.40;;
9948;SDS011;5013;51.840;8.276;2022-12-29T00:17:03;1.83;;;1.70;;
9948;SDS011;5013;51.840;8.276;2022-12-29T00:19:28;1.80;;;1.70;;
9948;SDS011;5013;51.840;8.276;2022-12-29T00:22:13;1.37;;;1.37;;
9948;SDS011;5013;51.840;8.276;2022-12-29T00:24:58;1.70;;;1.60;;
9948;SDS011;5013;51.840;8.276;2022-12-29T00:27:43;1.60;;;1.60;;
9948;SDS011;5013;51.840;8.276;2022-12-29T00:30:27;2.63;;;1.40;;
9948;SDS011;5013;51.840;8.276;2022-12-29T00:33:16;1.50;;;1.50;;
9948;SDS011;5013;51.840;8.276;2022-12-29T00:36:05;1.77;;;1.40;;
9948;SDS011;5013;51.840;8.276;2022-12-29T00:38:37;1.33;;;1.33;;
9948;SDS011;5013;51.840;8.276;2022-12-29T00:41:23;1.37;;;1.37;;
9948;SDS011;5013;51.840;8.276;2022-12-29T00:44:08;1.43;;;1.40;;
9948;SDS011;5013;51.840;8.276;2022-12-29T00:46:36;1.30;;;1.30;;
9948;SDS011;5013;51.840;8.276;2022-12-29T00:49:03;1.50;;;1.50;;
9948;SDS011;5013;51.840;8.276;2022-12-29T00:51:48;1.63;;;1.47;;
9948;SDS011;5013;51.840;8.276;2022-12-29T00:54:15;1.27;;;1.27;;
9948;SDS011;5013;51.840;8.276;2022-12-29T00:56:41;2.60;;;1.40;;
9948;SDS011;5013;51.840;8.276;2022-12-29T00:59:08;2.40;;;1.40;;
9948;SDS011;5013;51.840;8.276;2022-12-29T01:01:35;2.33;;;1.60;;
9948;SDS011;5013;51.840;8.276;2022-12-29T01:04:01;0.90;;;0.90;;
9948;SDS011;5013;51.840;8.276;2022-12-29T01:06:28;1.20;;;1.20;;
9948;SDS011;5013;51.840;8.276;2022-12-29T01:08:53;1.40;;;1.30;;
9948;SDS011;5013;51.840;8.276;2022-12-29T01:11:38;1.23;;;1.23;;
9948;SDS011;5013;51.840;8.276;2022-12-29T01:14:04;1.17;;;1.07;;
9948;SDS011;5013;51.840;8.276;2022-12-29T01:16:30;1.10;;;1.10;;
9948;SDS011;5013;51.840;8.276;2022-12-29T01:18:56;0.97;;;0.97;;
9948;SDS011;5013;51.840;8.276;2022-12-29T01:21:22;1.90;;;1.40;;
9948;SDS011;5013;51.840;8.276;2022-12-29T01:23:48;1.13;;;1.10;;
9948;SDS011;5013;51.840;8.276;2022-12-29T01:26:14;3.00;;;1.30;;
9948;SDS011;5013;51.840;8.276;2022-12-29T01:28:41;1.00;;;1.00;;
9948;SDS011;5013;51.840;8.276;2022-12-29T01:31:07;1.00;;;1.00;;
9948;SDS011;5013;51.840;8.276;2022-12-29T01:33:37;1.83;;;1.20;;
9948;SDS011;5013;51.840;8.276;2022-12-29T01:36:03;1.10;;;1.10;;
9948;SDS011;5013;51.840;8.276;2022-12-29T01:38:30;1.20;;;1.20;;
9948;SDS011;5013;51.840;8.276;2022-12-29T01:40:56;1.00;;;1.00;;
9948;SDS011;5013;51.840;8.276;2022-12-29T01:43:38;1.47;;;1.00;;
9948;SDS011;5013;51.840;8.276;2022-12-29T01:48:46;1.00;;;1.00;;
9948;SDS011;5013;51.840;8.276;2022-12-29T01:51:13;1.03;;;1.03;;
9948;SDS011;5013;51.840;8.276;2022-12-29T01:53:40;0.80;;;0.80;;
9948;SDS011;5013;51.840;8.276;2022-12-29T01:56:07;0.80;;;0.80;;
9948;SDS011;5013;51.840;8.276;2022-12-29T01:58:37;1.50;;;0.90;;
9948;SDS011;5013;51.840;8.276;2022-12-29T02:01:06;1.07;;;1.07;;
9948;SDS011;5013;51.840;8.276;2022-12-29T02:03:32;2.23;;;1.00;;
9948;SDS011;5013;51.840;8.276;2022-12-29T02:06:08;0.80;;;0.80;;
9948;SDS011;5013;51.840;8.276;2022-12-29T02:08:47;0.83;;;0.80;;
9948;SDS011;5013;51.840;8.276;2022-12-29T02:11:15;0.70;;;0.70;;
9948;SDS011;5013;51.840;8.276;2022-12-29T02:13:42;1.90;;;0.90;;
9948;SDS011;5013;51.840;8.276;2022-12-29T02:24:10;0.70;;;0.70;;
9948;SDS011;5013;51.840;8.276;2022-12-29T02:29:46;0.80;;;0.80;;
9948;SDS011;5013;51.840;8.276;2022-12-29T02:35:09;0.80;;;0.80;;
9948;SDS011;5013;51.840;8.276;2022-12-29T02:48:46;0.70;;;0.70;;
9948;SDS011;5013;51.840;8.276;2022-12-29T02:52:03;0.70;;;0.70;;
9948;SDS011;5013;51.840;8.276;2022-12-29T02:54:23;1.73;;;0.90;;
9948;SDS011;5013;51.840;8.276;2022-12-29T02:57:11;1.23;;;0.70;;
9948;SDS011;5013;51.840;8.276;2022-12-29T02:59:39;0.63;;;0.63;;
9948;SDS011;5013;51.840;8.276;2022-12-29T03:02:10;0.80;;;0.80;;
9948;SDS011;5013;51.840;8.276;2022-12-29T03:07:47;0.77;;;0.70;;
9948;SDS011;5013;51.840;8.276;2022-12-29T03:13:25;0.50;;;0.50;;
9948;SDS011;5013;51.840;8.276;2022-12-29T03:16:59;1.00;;;0.70;;
9948;SDS011;5013;51.840;8.276;2022-12-29T03:19:16;0.60;;;0.60;;
9948;SDS011;5013;51.840;8.276;2022-12-29T03:22:02;0.60;;;0.60;;
9948;SDS011;5013;51.840;8.276;2022-12-29T03:24:53;1.90;;;0.80;;
9948;SDS011;5013;51.840;8.276;2022-12-29T03:27:24;0.50;;;0.50;;
9948;SDS011;5013;51.840;8.276;2022-12-29T03:29:58;0.97;;;0.60;;
9948;SDS011;5013;51.840;8.276;2022-12-29T03:32:46;0.60;;;0.60;;
9948;SDS011;5013;51.840;8.276;2022-12-29T03:35:17;0.50;;;0.50;;
9948;SDS011;5013;51.840;8.276;2022-12-29T03:37:55;0.50;;;0.50;;
9948;SDS011;5013;51.840;8.276;2022-12-29T03:40:27;0.73;;;0.60;;
9948;SDS011;5013;51.840;8.276;2022-12-29T03:42:54;0.60;;;0.60;;
9948;SDS011;5013;51.840;8.276;2022-12-29T03:45:20;0.67;;;0.57;;
9948;SDS011;5013;51.840;8.276;2022-12-29T03:47:46;0.80;;;0.80;;
9948;SDS011;5013;51.840;8.276;2022-12-29T03:50:12;0.50;;;0.50;;
9948;SDS011;5013;51.840;8.276;2022-12-29T03:52:38;0.73;;;0.50;;
9948;SDS011;5013;51.840;8.276;2022-12-29T03:55:04;2.03;;;0.93;;
9948;SDS011;5013;51.840;8.276;2022-12-29T03:57:32;1.93;;;0.83;;
9948;SDS011;5013;51.840;8.276;2022-12-29T03:59:58;1.07;;;0.57;;
9948;SDS011;5013;51.840;8.276;2022-12-29T04:02:23;0.70;;;0.70;;
9948;SDS011;5013;51.840;8.276;2022-12-29T04:04:49;0.80;;;0.80;;
9948;SDS011;5013;51.840;8.276;2022-12-29T04:07:15;1.10;;;0.70;;
9948;SDS011;5013;51.840;8.276;2022-12-29T04:09:40;2.43;;;0.80;;
9948;SDS011;5013;51.840;8.276;2022-12-29T04:12:06;2.67;;;0.90;;
9948;SDS011;5013;51.840;8.276;2022-12-29T04:14:32;0.63;;;0.63;;
9948;SDS011;5013;51.840;8.276;2022-12-29T04:16:57;0.80;;;0.80;;
9948;SDS011;5013;51.840;8.276;2022-12-29T04:19:23;0.70;;;0.60;;
9948;SDS011;5013;51.840;8.276;2022-12-29T04:21:49;3.33;;;0.80;;
9948;SDS011;5013;51.840;8.276;2022-12-29T04:24:14;0.80;;;0.80;;
9948;SDS011;5013;51.840;8.276;2022-12-29T04:26:40;1.83;;;0.80;;
9948;SDS011;5013;51.840;8.276;2022-12-29T04:29:06;1.83;;;0.80;;
9948;SDS011;5013;51.840;8.276;2022-12-29T04:31:32;1.87;;;0.80;;
9948;SDS011;5013;51.840;8.276;2022-12-29T04:33:57;0.60;;;0.60;;
9948;SDS011;5013;51.840;8.276;2022-12-29T04:36:24;0.60;;;0.60;;
9948;SDS011;5013;51.840;8.276;2022-12-29T04:38:50;1.00;;;1.00;;
9948;SDS011;5013;51.840;8.276;2022-12-29T04:41:16;0.97;;;0.70;;
9948;SDS011;5013;51.840;8.276;2022-12-29T04:43:42;1.47;;;0.80;;
9948;SDS011;5013;51.840;8.276;2022-12-29T04:46:08;0.60;;;0.60;;
9948;SDS011;5013;51.840;8.276;2022-12-29T04:48:35;1.50;;;0.90;;
9948;SDS011;5013;51.840;8.276;2022-12-29T04:51:00;2.43;;;0.70;;
9948;SDS011;5013;51.840;8.276;2022-12-29T04:53:26;0.73;;;0.70;;
9948;SDS011;5013;51.840;8.276;2022-12-29T04:55:58;0.70;;;0.70;;
9948;SDS011;5013;51.840;8.276;2022-12-29T04:58:23;0.77;;;0.77;;
9948;SDS011;5013;51.840;8.276;2022-12-29T05:00:49;0.70;;;0.70;;
9948;SDS011;5013;51.840;8.276;2022-12-29T05:03:16;1.73;;;0.70;;
9948;SDS011;5013;51.840;8.276;2022-12-29T05:05:42;0.80;;;0.80;;
9948;SDS011;5013;51.840;8.276;2022-12-29T05:08:07;0.80;;;0.80;;
9948;SDS011;5013;51.840;8.276;2022-12-29T05:10:33;1.47;;;0.80;;
9948;SDS011;5013;51.840;8.276;2022-12-29T05:12:59;0.70;;;0.70;;
9948;SDS011;5013;51.840;8.276;2022-12-29T05:15:24;0.70;;;0.70;;
9948;SDS011;5013;51.840;8.276;2022-12-29T05:17:50;0.70;;;0.70;;
9948;SDS011;5013;51.840;8.276;2022-12-29T05:20:16;1.17;;;0.80;;
9948;SDS011;5013;51.840;8.276;2022-12-29T05:22:41;0.70;;;0.70;;
9948;SDS011;5013;51.840;8.276;2022-12-29T05:25:07;0.80;;;0.80;;
9948;SDS011;5013;51.840;8.276;2022-12-29T05:27:33;1.13;;;1.00;;
9948;SDS011;5013;51.840;8.276;2022-12-29T05:29:59;1.00;;;0.67;;
9948;SDS011;5013;51.840;8.276;2022-12-29T05:32:36;1.20;;;1.10;;
9948;SDS011;5013;51.840;8.276;2022-12-29T05:35:01;1.53;;;0.93;;
9948;SDS011;5013;51.840;8.276;2022-12-29T05:37:27;0.80;;;0.80;;
9948;SDS011;5013;51.840;8.276;2022-12-29T05:39:52;0.80;;;0.80;;
9948;SDS011;5013;51.840;8.276;2022-12-29T05:42:18;0.83;;;0.80;;
9948;SDS011;5013;51.840;8.276;2022-12-29T05:44:44;0.70;;;0.70;;
9948;SDS011;5013;51.840;8.276;2022-12-29T05:47:10;0.77;;;0.77;;
9948;SDS011;5013;51.840;8.276;2022-12-29T05:49:36;0.80;;;0.80;;
9948;SDS011;5013;51.840;8.276;2022-12-29T05:52:01;0.73;;;0.73;;
9948;SDS011;5013;51.840;8.276;2022-12-29T05:54:27;0.90;;;0.90;;
9948;SDS011;5013;51.840;8.276;2022-12-29T05:56:53;0.80;;;0.80;;
9948;SDS011;5013;51.840;8.276;2022-12-29T05:59:19;1.03;;;0.90;;
9948;SDS011;5013;51.840;8.276;2022-12-29T06:01:44;0.63;;;0.63;;
9948;SDS011;5013;51.840;8.276;2022-12-29T06:04:10;0.90;;;0.90;;
9948;SDS011;5013;51.840;8.276;2022-12-29T06:06:38;0.90;;;0.90;;
9948;SDS011;5013;51.840;8.276;2022-12-29T06:09:05;0.80;;;0.80;;
9948;SDS011;5013;51.840;8.276;2022-12-29T06:11:30;0.90;;;0.83;;
9948;SDS011;5013;51.840;8.276;2022-12-29T06:13:56;0.90;;;0.90;;
9948;SDS011;5013;51.840;8.276;2022-12-29T06:16:22;0.67;;;0.67;;
9948;SDS011;5013;51.840;8.276;2022-12-29T06:18:47;1.03;;;0.80;;
9948;SDS011;5013;51.840;8.276;2022-12-29T06:21:13;0.90;;;0.90;;
9948;SDS011;5013;51.840;8.276;2022-12-29T06:23:38;0.90;;;0.90;;
9948;SDS011;5013;51.840;8.276;2022-12-29T06:26:04;3.50;;;0.87;;
9948;SDS011;5013;51.840;8.276;2022-12-29T06:28:30;2.23;;;0.80;;
9948;SDS011;5013;51.840;8.276;2022-12-29T06:30:55;0.87;;;0.87;;
9948;SDS011;5013;51.840;8.276;2022-12-29T06:33:22;0.70;;;0.70;;
9948;SDS011;5013;51.840;8.276;2022-12-29T06:35:48;1.70;;;0.90;;
9948;SDS011;5013;51.840;8.276;2022-12-29T06:38:13;1.37;;;0.80;;
9948;SDS011;5013;51.840;8.276;2022-12-29T06:40:39;0.87;;;0.87;;
9948;SDS011;5013;51.840;8.276;2022-12-29T06:43:06;0.80;;;0.80;;
9948;SDS011;5013;51.840;8.276;2022-12-29T06:45:32;0.90;;;0.87;;
9948;SDS011;5013;51.840;8.276;2022-12-29T06:47:57;0.80;;;0.80;;
9948;SDS011;5013;51.840;8.276;2022-12-29T06:50:23;4.20;;;0.90;;
9948;SDS011;5013;51.840;8.276;2022-12-29T06:52:49;1.43;;;1.20;;
9948;SDS011;5013;51.840;8.276;2022-12-29T06:55:14;2.43;;;1.20;;
9948;SDS011;5013;51.840;8.276;2022-12-29T06:57:41;0.80;;;0.80;;
9948;SDS011;5013;51.840;8.276;2022-12-29T07:00:06;1.30;;;1.17;;
9948;SDS011;5013;51.840;8.276;2022-12-29T07:02:32;0.93;;;0.80;;
9948;SDS011;5013;51.840;8.276;2022-12-29T07:04:58;2.10;;;1.27;;
9948;SDS011;5013;51.840;8.276;2022-12-29T07:07:24;2.97;;;1.07;;
9948;SDS011;5013;51.840;8.276;2022-12-29T07:09:49;1.00;;;1.00;;
9948;SDS011;5013;51.840;8.276;2022-12-29T07:12:15;2.00;;;1.10;;
9948;SDS011;5013;51.840;8.276;2022-12-29T07:14:40;0.90;;;0.87;;
9948;SDS011;5013;51.840;8.276;2022-12-29T07:17:14;2.30;;;1.20;;
9948;SDS011;5013;51.840;8.276;2022-12-29T07:19:40;0.90;;;0.90;;
9948;SDS011;5013;51.840;8.276;2022-12-29T07:22:05;1.10;;;1.10;;
9948;SDS011;5013;51.840;8.276;2022-12-29T07:24:31;2.87;;;1.10;;
9948;SDS011;5013;51.840;8.276;2022-12-29T07:26:56;3.40;;;1.47;;
9948;SDS011;5013;51.840;8.276;2022-12-29T07:29:22;3.13;;;1.20;;
9948;SDS011;5013;51.840;8.276;2022-12-29T07:31:47;1.20;;;1.10;;
9948;SDS011;5013;51.840;8.276;2022-12-29T07:34:13;2.13;;;1.47;;
9948;SDS011;5013;51.840;8.276;2022-12-29T07:36:41;2.53;;;1.57;;
9948;SDS011;5013;51.840;8.276;2022-12-29T07:39:06;2.53;;;1.30;;
9948;SDS011;5013;51.840;8.276;2022-12-29T07:41:32;1.80;;;1.27;;
9948;SDS011;5013;51.840;8.276;2022-12-29T07:43:57;2.23;;;1.27;;
9948;SDS011;5013;51.840;8.276;2022-12-29T07:49:45;4.53;;;1.60;;
9948;SDS011;5013;51.840;8.276;2022-12-29T07:52:11;1.93;;;1.40;;
9948;SDS011;5013;51.840;8.276;2022-12-29T07:54:37;4.27;;;1.63;;
9948;SDS011;5013;51.840;8.276;2022-12-29T07:57:03;3.73;;;1.23;;
9948;SDS011;5013;51.840;8.276;2022-12-29T07:59:29;2.40;;;1.30;;
9948;SDS011;5013;51.840;8.276;2022-12-29T08:01:55;3.60;;;1.53;;
9948;SDS011;5013;51.840;8.276;2022-12-29T08:04:20;4.07;;;1.33;;
9948;SDS011;5013;51.840;8.276;2022-12-29T08:06:46;3.70;;;1.70;;
9948;SDS011;5013;51.840;8.276;2022-12-29T08:09:12;3.27;;;1.77;;
9948;SDS011;5013;51.840;8.276;2022-12-29T08:11:37;4.60;;;1.70;;
9948;SDS011;5013;51.840;8.276;2022-12-29T08:14:03;1.97;;;1.30;;
9948;SDS011;5013;51.840;8.276;2022-12-29T08:16:29;3.77;;;1.60;;
9948;SDS011;5013;51.840;8.276;2022-12-29T08:18:54;2.10;;;1.73;;
9948;SDS011;5013;51.840;8.276;2022-12-29T08:21:21;5.90;;;1.40;;
9948;SDS011;5013;51.840;8.276;2022-12-29T08:23:47;4.17;;;1.60;;
9948;SDS011;5013;51.840;8.276;2022-12-29T08:26:12;2.83;;;1.50;;
9948;SDS011;5013;51.840;8.276;2022-12-29T08:28:38;7.13;;;1.57;;
9948;SDS011;5013;51.840;8.276;2022-12-29T08:31:03;3.93;;;1.40;;
9948;SDS011;5013;51.840;8.276;2022-12-29T08:33:29;2.83;;;1.30;;
9948;SDS011;5013;51.840;8.276;2022-12-29T08:36:02;3.43;;;1.50;;
9948;SDS011;5013;51.840;8.276;2022-12-29T08:38:29;2.93;;;1.50;;
9948;SDS011;5013;51.840;8.276;2022-12-29T08:40:56;4.37;;;1.60;;
9948;SDS011;5013;51.840;8.276;2022-12-29T08:43:22;2.37;;;1.20;;
9948;SDS011;5013;51.840;8.276;2022-12-29T08:45:49;4.23;;;1.87;;
9948;SDS011;5013;51.840;8.276;2022-12-29T08:48:14;5.90;;;1.47;;
9948;SDS011;5013;51.840;8.276;2022-12-29T08:50:43;2.80;;;1.10;;
9948;SDS011;5013;51.840;8.276;2022-12-29T08:53:12;3.33;;;1.20;;
9948;SDS011;5013;51.840;8.276;2022-12-29T08:55:38;2.60;;;1.50;;
9948;SDS011;5013;51.840;8.276;2022-12-29T08:58:03;1.30;;;1.20;;
9948;SDS011;5013;51.840;8.276;2022-12-29T09:00:29;3.77;;;1.30;;
9948;SDS011;5013;51.840;8.276;2022-12-29T09:02:55;4.00;;;1.50;;
9948;SDS011;5013;51.840;8.276;2022-12-29T09:05:21;1.73;;;1.20;;
9948;SDS011;5013;51.840;8.276;2022-12-29T09:07:46;3.10;;;1.43;;
9948;SDS011;5013;51.840;8.276;2022-12-29T09:10:12;4.93;;;1.70;;
9948;SDS011;5013;51.840;8.276;2022-12-29T09:12:38;5.03;;;1.60;;
9948;SDS011;5013;51.840;8.276;2022-12-29T09:15:04;5.43;;;1.53;;
9948;SDS011;5013;51.840;8.276;2022-12-29T09:17:30;1.37;;;1.20;;
9948;SDS011;5013;51.840;8.276;2022-12-29T09:20:20;7.00;;;1.40;;
9948;SDS011;5013;51.840;8.276;2022-12-29T09:22:46;4.60;;;1.70;;
9948;SDS011;5013;51.840;8.276;2022-12-29T09:25:12;1.70;;;1.10;;
9948;SDS011;5013;51.840;8.276;2022-12-29T09:27:38;2.60;;;1.10;;
9948;SDS011;5013;51.840;8.276;2022-12-29T09:30:06;3.30;;;1.43;;
9948;SDS011;5013;51.840;8.276;2022-12-29T09:32:33;3.10;;;1.50;;
9948;SDS011;5013;51.840;8.276;2022-12-29T09:34:59;6.77;;;1.60;;
9948;SDS011;5013;51.840;8.276;2022-12-29T09:37:25;3.67;;;2.23;;
9948;SDS011;5013;51.840;8.276;2022-12-29T09:39:51;8.00;;;3.57;;
9948;SDS011;5013;51.840;8.276;2022-12-29T09:45:04;5.77;;;2.23;;
9948;SDS011;5013;51.840;8.276;2022-12-29T09:48:16;4.40;;;1.50;;
9948;SDS011;5013;51.840;8.276;2022-12-29T09:50:52;4.37;;;1.67;;
9948;SDS011;5013;51.840;8.276;2022-12-29T09:53:28;6.43;;;1.60;;
9948;SDS011;5013;51.840;8.276;2022-12-29T09:56:02;7.10;;;1.90;;
9948;SDS011;5013;51.840;8.276;2022-12-29T09:58:37;5.50;;;1.80;;
9948;SDS011;5013;51.840;8.276;2022-12-29T10:01:12;6.00;;;1.60;;
9948;SDS011;5013;51.840;8.276;2022-12-29T10:03:52;4.30;;;1.50;;
9948;SDS011;5013;51.840;8.276;2022-12-29T10:26:00;5.77;;;1.77;;
9948;SDS011;5013;51.840;8.276;2022-12-29T10:31:24;5.80;;;1.93;;
9948;SDS011;5013;51.840;8.276;2022-12-29T10:33:57;4.77;;;1.60;;
9948;SDS011;5013;51.840;8.276;2022-12-29T10:36:37;6.47;;;2.00;;
9948;SDS011;5013;51.840;8.276;2022-12-29T10:42:11;4.50;;;1.40;;
9948;SDS011;5013;51.840;8.276;2022-12-29T10:44:47;4.07;;;1.30;;
9948;SDS011;5013;51.840;8.276;2022-12-29T10:47:33;5.93;;;2.03;;
9948;SDS011;5013;51.840;8.276;2022-12-29T10:50:05;3.93;;;1.30;;
9948;SDS011;5013;51.840;8.276;2022-12-29T10:52:31;5.07;;;2.10;;
9948;SDS011;5013;51.840;8.276;2022-12-29T10:55:00;10.57;;;1.50;;
9948;SDS011;5013;51.840;8.276;2022-12-29T10:57:41;2.47;;;1.70;;
9948;SDS011;5013;51.840;8.276;2022-12-29T11:00:16;3.73;;;2.00;;
9948;SDS011;5013;51.840;8.276;2022-12-29T11:02:56;4.27;;;1.47;;
9948;SDS011;5013;51.840;8.276;2022-12-29T11:08:03;3.23;;;1.23;;
9948;SDS011;5013;51.840;8.276;2022-12-29T11:10:36;11.87;;;3.77;;
9948;SDS011;5013;51.840;8.276;2022-12-29T11:13:10;8.93;;;4.60;;
9948;SDS011;5013;51.840;8.276;2022-12-29T11:15:40;6.73;;;3.77;;
9948;SDS011;5013;51.840;8.276;2022-12-29T11:18:23;9.20;;;3.90;;
9948;SDS011;5013;51.840;8.276;2022-12-29T11:20:52;5.40;;;3.17;;
9948;SDS011;5013;51.840;8.276;2022-12-29T11:28:32;5.70;;;1.77;;
9948;SDS011;5013;51.840;8.276;2022-12-29T11:31:05;3.10;;;1.57;;
9948;SDS011;5013;51.840;8.276;2022-12-29T11:33:37;3.53;;;1.90;;
9948;SDS011;5013;51.840;8.276;2022-12-29T11:38:36;5.90;;;1.60;;
9948;SDS011;5013;51.840;8.276;2022-12-29T11:41:05;4.97;;;1.70;;
9948;SDS011;5013;51.840;8.276;2022-12-29T11:43:39;7.97;;;1.97;;
9948;SDS011;5013;51.840;8.276;2022-12-29T11:46:08;4.53;;;1.80;;
9948;SDS011;5013;51.840;8.276;2022-12-29T11:48:45;8.83;;;2.50;;
9948;SDS011;5013;51.840;8.276;2022-12-29T11:51:12;7.83;;;2.13;;
9948;SDS011;5013;51.840;8.276;2022-12-29T11:53:46;2.97;;;1.87;;
9948;SDS011;5013;51.840;8.276;2022-12-29T11:56:19;5.97;;;2.00;;
9948;SDS011;5013;51.840;8.276;2022-12-29T11:58:47;6.43;;;2.20;;
9948;SDS011;5013;51.840;8.276;2022-12-29T12:01:17;3.43;;;1.77;;
9948;SDS011;5013;51.840;8.276;2022-12-29T12:03:52;5.90;;;1.90;;
9948;SDS011;5013;51.840;8.276;2022-12-29T12:06:25;8.67;;;3.03;;
9948;SDS011;5013;51.840;8.276;2022-12-29T12:08:55;4.47;;;2.00;;
9948;SDS011;5013;51.840;8.276;2022-12-29T12:11:40;5.97;;;2.10;;
9948;SDS011;5013;51.840;8.276;2022-12-29T12:14:18;6.17;;;2.13;;
9948;SDS011;5013;51.840;8.276;2022-12-29T12:16:50;5.13;;;1.67;;
9948;SDS011;5013;51.840;8.276;2022-12-29T12:22:21;5.93;;;1.70;;
9948;SDS011;5013;51.840;8.276;2022-12-29T12:25:04;6.00;;;1.80;;
9948;SDS011;5013;51.840;8.276;2022-12-29T12:27:37;3.67;;;1.40;;
9948;SDS011;5013;51.840;8.276;2022-12-29T12:30:20;19.47;;;8.03;;
9948;SDS011;5013;51.840;8.276;2022-12-29T12:32:54;5.67;;;2.43;;
9948;SDS011;5013;51.840;8.276;2022-12-29T12:43:49;3.90;;;1.60;;
9948;SDS011;5013;51.840;8.276;2022-12-29T12:51:47;8.23;;;1.90;;
9948;SDS011;5013;51.840;8.276;2022-12-29T13:00:13;8.00;;;1.97;;
9948;SDS011;5013;51.840;8.276;2022-12-29T13:05:59;6.87;;;1.63;;
9948;SDS011;5013;51.840;8.276;2022-12-29T13:08:34;7.77;;;1.97;;
9948;SDS011;5013;51.840;8.276;2022-12-29T13:18:56;7.30;;;2.03;;
9948;SDS011;5013;51.840;8.276;2022-12-29T13:21:45;7.87;;;2.27;;
9948;SDS011;5013;51.840;8.276;2022-12-29T13:27:34;5.93;;;1.70;;
9948;SDS011;5013;51.840;8.276;2022-12-29T13:38:37;5.13;;;2.20;;
9948;SDS011;5013;51.840;8.276;2022-12-29T13:41:09;10.27;;;1.93;;
9948;SDS011;5013;51.840;8.276;2022-12-29T13:43:38;7.80;;;2.67;;
9948;SDS011;5013;51.840;8.276;2022-12-29T13:46:18;8.17;;;1.87;;
9948;SDS011;5013;51.840;8.276;2022-12-29T13:49:00;3.17;;;1.70;;
9948;SDS011;5013;51.840;8.276;2022-12-29T13:51:31;10.43;;;2.90;;
9948;SDS011;5013;51.840;8.276;2022-12-29T13:54:17;4.67;;;2.37;;
9948;SDS011;5013;51.840;8.276;2022-12-29T14:00:32;5.97;;;2.13;;
9948;SDS011;5013;51.840;8.276;2022-12-29T14:07:46;8.37;;;2.20;;
9948;SDS011;5013;51.840;8.276;2022-12-29T14:10:27;8.23;;;2.00;;
9948;SDS011;5013;51.840;8.276;2022-12-29T14:13:05;6.63;;;2.00;;
9948;SDS011;5013;51.840;8.276;2022-12-29T14:15:38;8.37;;;2.07;;
9948;SDS011;5013;51.840;8.276;2022-12-29T14:18:14;5.67;;;1.90;;
9948;SDS011;5013;51.840;8.276;2022-12-29T14:20:57;7.60;;;1.87;;
9948;SDS011;5013;51.840;8.276;2022-12-29T14:28:46;6.53;;;1.93;;
9948;SDS011;5013;51.840;8.276;2022-12-29T14:33:41;14.67;;;2.30;;
9948;SDS011;5013;51.840;8.276;2022-12-29T14:36:34;6.17;;;2.10;;
9948;SDS011;5013;51.840;8.276;2022-12-29T14:39:30;5.87;;;2.10;;
9948;SDS011;5013;51.840;8.276;2022-12-29T14:44:34;4.70;;;2.10;;
9948;SDS011;5013;51.840;8.276;2022-12-29T14:47:12;7.10;;;2.10;;
9948;SDS011;5013;51.840;8.276;2022-12-29T14:49:47;6.63;;;1.97;;
9948;SDS011;5013;51.840;8.276;2022-12-29T14:52:20;7.43;;;2.10;;
9948;SDS011;5013;51.840;8.276;2022-12-29T14:54:50;4.37;;;1.80;;
9948;SDS011;5013;51.840;8.276;2022-12-29T14:57:35;7.53;;;2.70;;
9948;SDS011;5013;51.840;8.276;2022-12-29T15:00:34;4.77;;;1.70;;
9948;SDS011;5013;51.840;8.276;2022-12-29T15:03:14;9.20;;;3.97;;
9948;SDS011;5013;51.840;8.276;2022-12-29T15:05:46;5.97;;;2.37;;
9948;SDS011;5013;51.840;8.276;2022-12-29T15:08:26;8.80;;;3.33;;
9948;SDS011;5013;51.840;8.276;2022-12-29T15:11:18;10.23;;;3.30;;
9948;SDS011;5013;51.840;8.276;2022-12-29T15:13:46;11.57;;;3.50;;
9948;SDS011;5013;51.840;8.276;2022-12-29T15:16:33;4.20;;;2.27;;
9948;SDS011;5013;51.840;8.276;2022-12-29T15:19:02;4.87;;;1.90;;
9948;SDS011;5013;51.840;8.276;2022-12-29T15:21:30;4.43;;;2.23;;
9948;SDS011;5013;51.840;8.276;2022-12-29T15:23:58;10.40;;;2.20;;
9948;SDS011;5013;51.840;8.276;2022-12-29T15:26:35;12.83;;;2.10;;
9948;SDS011;5013;51.840;8.276;2022-12-29T15:29:03;4.03;;;2.10;;
9948;SDS011;5013;51.840;8.276;2022-12-29T15:31:28;5.40;;;1.80;;
9948;SDS011;5013;51.840;8.276;2022-12-29T15:33:54;6.20;;;1.90;;
9948;SDS011;5013;51.840;8.276;2022-12-29T15:36:37;9.37;;;2.20;;
9948;SDS011;5013;51.840;8.276;2022-12-29T15:39:18;3.07;;;1.73;;
9948;SDS011;5013;51.840;8.276;2022-12-29T15:41:49;9.47;;;1.90;;
9948;SDS011;5013;51.840;8.276;2022-12-29T15:44:37;8.83;;;1.93;;
9948;SDS011;5013;51.840;8.276;2022-12-29T15:47:06;5.27;;;1.73;;
9948;SDS011;5013;51.840;8.276;2022-12-29T15:49:41;5.93;;;1.93;;
9948;SDS011;5013;51.840;8.276;2022-12-29T15:52:13;4.13;;;1.70;;
9948;SDS011;5013;51.840;8.276;2022-12-29T15:54:44;9.27;;;2.80;;
9948;SDS011;5013;51.840;8.276;2022-12-29T15:57:16;9.30;;;2.33;;
9948;SDS011;5013;51.840;8.276;2022-12-29T15:59:48;5.47;;;1.90;;
9948;SDS011;5013;51.840;8.276;2022-12-29T16:02:13;11.07;;;2.00;;
9948;SDS011;5013;51.840;8.276;2022-12-29T16:04:39;13.33;;;2.37;;
9948;SDS011;5013;51.840;8.276;2022-12-29T16:07:20;10.83;;;2.17;;
9948;SDS011;5013;51.840;8.276;2022-12-29T16:09:54;7.57;;;2.00;;
9948;SDS011;5013;51.840;8.276;2022-12-29T16:12:26;7.83;;;1.70;;
9948;SDS011;5013;51.840;8.276;2022-12-29T16:14:57;8.07;;;1.73;;
9948;SDS011;5013;51.840;8.276;2022-12-29T16:17:27;9.83;;;1.90;;
9948;SDS011;5013;51.840;8.276;2022-12-29T16:19:57;6.77;;;2.10;;
9948;SDS011;5013;51.840;8.276;2022-12-29T16:22:33;4.43;;;1.80;;
9948;SDS011;5013;51.840;8.276;2022-12-29T16:25:04;4.23;;;1.83;;
9948;SDS011;5013;51.840;8.276;2022-12-29T16:27:39;5.33;;;1.80;;
9948;SDS011;5013;51.840;8.276;2022-12-29T16:30:12;4.87;;;1.60;;
9948;SDS011;5013;51.840;8.276;2022-12-29T16:33:02;3.60;;;1.73;;
9948;SDS011;5013;51.840;8.276;2022-12-29T16:35:44;2.93;;;1.57;;
9948;SDS011;5013;51.840;8.276;2022-12-29T16:38:15;5.30;;;1.33;;
9948;SDS011;5013;51.840;8.276;2022-12-29T16:40:56;5.27;;;1.40;;
9948;SDS011;5013;51.840;8.276;2022-12-29T16:43:24;7.53;;;1.70;;
9948;SDS011;5013;51.840;8.276;2022-12-29T16:50:44;8.57;;;4.20;;
9948;SDS011;5013;51.840;8.276;2022-12-29T16:53:21;3.60;;;1.73;;
9948;SDS011;5013;51.840;8.276;2022-12-29T16:55:51;5.83;;;1.90;;
9948;SDS011;5013;51.840;8.276;2022-12-29T16:58:20;4.00;;;1.67;;
9948;SDS011;5013;51.840;8.276;2022-12-29T17:00:49;5.73;;;2.20;;
9948;SDS011;5013;51.840;8.276;2022-12-29T17:03:14;5.67;;;2.20;;
9948;SDS011;5013;51.840;8.276;2022-12-29T17:05:41;6.60;;;2.30;;
9948;SDS011;5013;51.840;8.276;2022-12-29T17:08:19;8.03;;;2.47;;
9948;SDS011;5013;51.840;8.276;2022-12-29T17:10:48;4.90;;;2.00;;
9948;SDS011;5013;51.840;8.276;2022-12-29T17:13:34;6.97;;;1.83;;
9948;SDS011;5013;51.840;8.276;2022-12-29T17:16:01;5.13;;;1.80;;
9948;SDS011;5013;51.840;8.276;2022-12-29T17:18:27;5.40;;;1.77;;
9948;SDS011;5013;51.840;8.276;2022-12-29T17:20:53;6.17;;;2.10;;
9948;SDS011;5013;51.840;8.276;2022-12-29T17:23:18;4.93;;;1.90;;
9948;SDS011;5013;51.840;8.276;2022-12-29T17:25:44;4.73;;;1.80;;
9948;SDS011;5013;51.840;8.276;2022-12-29T17:30:46;5.67;;;1.80;;
9948;SDS011;5013;51.840;8.276;2022-12-29T17:33:13;5.93;;;1.90;;
9948;SDS011;5013;51.840;8.276;2022-12-29T17:35:41;4.23;;;1.70;;
9948;SDS011;5013;51.840;8.276;2022-12-29T17:38:20;3.73;;;1.90;;
9948;SDS011;5013;51.840;8.276;2022-12-29T17:40:50;4.50;;;1.77;;
9948;SDS011;5013;51.840;8.276;2022-12-29T17:43:16;3.57;;;1.73;;
9948;SDS011;5013;51.840;8.276;2022-12-29T17:45:42;5.70;;;1.63;;
9948;SDS011;5013;51.840;8.276;2022-12-29T17:48:12;6.90;;;1.80;;
9948;SDS011;5013;51.840;8.276;2022-12-29T17:50:39;7.27;;;2.20;;
9948;SDS011;5013;51.840;8.276;2022-12-29T17:53:09;6.53;;;2.20;;
9948;SDS011;5013;51.840;8.276;2022-12-29T17:55:38;5.90;;;2.17;;
9948;SDS011;5013;51.840;8.276;2022-12-29T17:58:14;5.43;;;1.93;;
9948;SDS011;5013;51.840;8.276;2022-12-29T18:00:43;2.43;;;1.40;;
9948;SDS011;5013;51.840;8.276;2022-12-29T18:03:18;3.37;;;1.70;;
9948;SDS011;5013;51.840;8.276;2022-12-29T18:05:47;7.10;;;1.93;;